sensor_id;sensor_type;location;lat;lon;timestamp;pressure;altitude;pressure_sealevel;temperature;humidity
6204;BME280;3135;42.602;23.468;2023-04-23T00:00:37;92522.06;;;6.10;100.00
6204;BME280;3135;42.602;23.468;2023-04-23T00:03:06;92506.72;;;6.02;100.00
6204;BME280;3135;42.602;23.468;2023-04-23T00:05:34;92511.69;;;6.24;100.00
6204;BME280;3135;42.602;23.468;2023-04-23T00:08:01;92504.25;;;6.31;100.00
6204;BME280;3135;42.602;23.468;2023-04-23T00:10:27;92493.41;;;6.23;100.00
6204;BME280;3135;42.602;23.468;2023-04-23T00:12:52;92501.31;;;6.33;100.00
6204;BME280;3135;42.602;23.468;2023-04-23T00:15:18;92495.53;;;6.26;100.00
6204;BME280;3135;42.602;23.468;2023-04-23T00:17:46;92511.72;;;6.14;100.00
6204;BME280;3135;42.602;23.468;2023-04-23T00:20:12;92502.16;;;6.18;100.00
6204;BME280;3135;42.602;23.468;2023-04-23T00:22:38;92523.13;;;6.14;100.00
6204;BME280;3135;42.602;23.468;2023-04-23T00:25:04;92512.50;;;6.14;100.00
6204;BME280;3135;42.602;23.468;2023-04-23T00:27:29;92516.25;;;6.03;100.00
6204;BME280;3135;42.602;23.468;2023-04-23T00:29:55;92516.72;;;6.21;100.00
6204;BME280;3135;42.602;23.468;2023-04-23T00:32:20;92519.66;;;6.24;100.00
6204;BME280;3135;42.602;23.468;2023-04-23T00:34:47;92508.81;;;6.10;100.00
6204;BME280;3135;42.602;23.468;2023-04-23T00:37:13;92512.50;;;6.14;100.00
6204;BME280;3135;42.602;23.468;2023-04-23T00:39:39;92508.28;;;6.08;100.00
6204;BME280;3135;42.602;23.468;2023-04-23T00:42:05;92515.44;;;6.18;100.00
6204;BME280;3135;42.602;23.468;2023-04-23T00:44:37;92516.22;;;6.24;100.00
6204;BME280;3135;42.602;23.468;2023-04-23T00:47:02;92506.69;;;6.07;100.00
6204;BME280;3135;42.602;23.468;2023-04-23T00:49:30;92519.97;;;5.97;100.00
6204;BME280;3135;42.602;23.468;2023-04-23T00:51:55;92505.63;;;5.83;100.00
6204;BME280;3135;42.602;23.468;2023-04-23T00:54:21;92498.22;;;5.85;100.00
6204;BME280;3135;42.602;23.468;2023-04-23T00:56:47;92513.56;;;5.83;100.00
6204;BME280;3135;42.602;23.468;2023-04-23T00:59:14;92506.69;;;5.72;100.00
6204;BME280;3135;42.602;23.468;2023-04-23T01:01:40;92492.91;;;5.64;100.00
6204;BME280;3135;42.602;23.468;2023-04-23T01:04:05;92499.03;;;5.70;100.00
6204;BME280;3135;42.602;23.468;2023-04-23T01:06:34;92499.03;;;5.75;100.00
6204;BME280;3135;42.602;23.468;2023-04-23T01:09:00;92501.41;;;5.77;100.00
6204;BME280;3135;42.602;23.468;2023-04-23T01:11:26;92500.59;;;5.76;100.00
6204;BME280;3135;42.602;23.468;2023-04-23T01:13:52;92503.00;;;5.57;100.00
6204;BME280;3135;42.602;23.468;2023-04-23T01:16:17;92503.50;;;5.85;100.00
6204;BME280;3135;42.602;23.468;2023-04-23T01:18:43;92499.25;;;5.74;100.00
6204;BME280;3135;42.602;23.468;2023-04-23T01:21:11;92499.53;;;5.67;100.00
6204;BME280;3135;42.602;23.468;2023-04-23T01:23:38;92513.59;;;5.78;100.00
6204;BME280;3135;42.602;23.468;2023-04-23T01:26:03;92499.81;;;5.76;100.00
6204;BME280;3135;42.602;23.468;2023-04-23T01:28:29;92507.75;;;5.81;100.00
6204;BME280;3135;42.602;23.468;2023-04-23T01:30:55;92511.22;;;5.97;100.00
6204;BME280;3135;42.602;23.468;2023-04-23T01:33:20;92497.66;;;5.88;100.00
6204;BME280;3135;42.602;23.468;2023-04-23T01:35:46;92520.50;;;5.79;100.00
6204;BME280;3135;42.602;23.468;2023-04-23T01:38:13;92521.78;;;5.86;100.00
6204;BME280;3135;42.602;23.468;2023-04-23T01:40:40;92518.88;;;5.88;100.00
6204;BME280;3135;42.602;23.468;2023-04-23T01:43:06;92512.78;;;5.87;100.00
6204;BME280;3135;42.602;23.468;2023-04-23T01:45:31;92523.16;;;5.94;100.00
6204;BME280;3135;42.602;23.468;2023-04-23T01:47:58;92508.53;;;5.86;100.00
6204;BME280;3135;42.602;23.468;2023-04-23T01:50:24;92500.59;;;5.86;100.00
6204;BME280;3135;42.602;23.468;2023-04-23T01:52:52;92523.44;;;5.98;100.00
6204;BME280;3135;42.602;23.468;2023-04-23T01:55:17;92512.00;;;5.77;100.00
6204;BME280;3135;42.602;23.468;2023-04-23T01:57:44;92514.66;;;5.61;100.00
6204;BME280;3135;42.602;23.468;2023-04-23T02:00:11;92517.31;;;5.77;100.00
6204;BME280;3135;42.602;23.468;2023-04-23T02:02:38;92508.03;;;5.64;100.00
6204;BME280;3135;42.602;23.468;2023-04-23T02:05:12;92516.25;;;5.52;100.00
6204;BME280;3135;42.602;23.468;2023-04-23T02:07:38;92512.53;;;5.58;100.00
6204;BME280;3135;42.602;23.468;2023-04-23T02:10:04;92509.88;;;5.48;100.00
6204;BME280;3135;42.602;23.468;2023-04-23T02:12:30;92513.59;;;5.62;100.00
6204;BME280;3135;42.602;23.468;2023-04-23T02:14:55;92529.50;;;5.78;100.00
6204;BME280;3135;42.602;23.468;2023-04-23T02:17:21;92498.22;;;5.64;100.00
6204;BME280;3135;42.602;23.468;2023-04-23T02:19:48;92528.44;;;5.79;100.00
6204;BME280;3135;42.602;23.468;2023-04-23T02:22:14;92527.91;;;5.77;100.00
6204;BME280;3135;42.602;23.468;2023-04-23T02:24:40;92508.56;;;5.66;100.00
6204;BME280;3135;42.602;23.468;2023-04-23T02:27:07;92500.06;;;5.49;100.00
6204;BME280;3135;42.602;23.468;2023-04-23T02:29:32;92514.38;;;5.48;100.00
6204;BME280;3135;42.602;23.468;2023-04-23T02:31:58;92504.31;;;5.45;100.00
6204;BME280;3135;42.602;23.468;2023-04-23T02:34:23;92518.38;;;5.55;100.00
6204;BME280;3135;42.602;23.468;2023-04-23T02:36:49;92514.13;;;5.49;100.00
6204;BME280;3135;42.602;23.468;2023-04-23T02:39:15;92520.22;;;5.55;100.00
6204;BME280;3135;42.602;23.468;2023-04-23T02:41:40;92514.91;;;5.45;100.00
6204;BME280;3135;42.602;23.468;2023-04-23T02:44:06;92510.13;;;5.21;100.00
6204;BME280;3135;42.602;23.468;2023-04-23T02:46:31;92518.84;;;5.22;100.00
6204;BME280;3135;42.602;23.468;2023-04-23T02:48:56;92518.91;;;5.32;100.00
6204;BME280;3135;42.602;23.468;2023-04-23T02:51:22;92529.44;;;5.17;100.00
6204;BME280;3135;42.602;23.468;2023-04-23T02:53:47;92514.38;;;5.32;100.00
6204;BME280;3135;42.602;23.468;2023-04-23T02:56:13;92513.84;;;5.35;100.00
6204;BME280;3135;42.602;23.468;2023-04-23T02:58:38;92527.38;;;5.44;100.00
6204;BME280;3135;42.602;23.468;2023-04-23T03:01:04;92525.78;;;5.23;100.00
6204;BME280;3135;42.602;23.468;2023-04-23T03:03:30;92521.28;;;5.38;100.00
6204;BME280;3135;42.602;23.468;2023-04-23T03:05:57;92528.66;;;5.16;100.00
6204;BME280;3135;42.602;23.468;2023-04-23T03:08:22;92522.03;;;5.19;100.00
6204;BME280;3135;42.602;23.468;2023-04-23T03:10:48;92530.00;;;5.34;100.00
6204;BME280;3135;42.602;23.468;2023-04-23T03:13:13;92519.13;;;5.30;100.00
6204;BME280;3135;42.602;23.468;2023-04-23T03:15:39;92531.88;;;5.44;100.00
6204;BME280;3135;42.602;23.468;2023-04-23T03:18:05;92526.56;;;5.38;100.00
6204;BME280;3135;42.602;23.468;2023-04-23T03:20:33;92545.38;;;5.32;100.00
6204;BME280;3135;42.602;23.468;2023-04-23T03:22:58;92535.00;;;5.15;100.00
6204;BME280;3135;42.602;23.468;2023-04-23T03:25:24;92544.31;;;5.28;100.00
6204;BME280;3135;42.602;23.468;2023-04-23T03:27:50;92537.41;;;5.22;100.00
6204;BME280;3135;42.602;23.468;2023-04-23T03:30:16;92552.28;;;5.33;100.00
6204;BME280;3135;42.602;23.468;2023-04-23T03:32:41;92539.53;;;5.25;100.00
6204;BME280;3135;42.602;23.468;2023-04-23T03:35:07;92544.84;;;5.30;100.00
6204;BME280;3135;42.602;23.468;2023-04-23T03:37:33;92533.97;;;5.26;100.00
6204;BME280;3135;42.602;23.468;2023-04-23T03:39:59;92552.78;;;5.40;100.00
6204;BME280;3135;42.602;23.468;2023-04-23T03:42:27;92550.13;;;5.30;100.00
6204;BME280;3135;42.602;23.468;2023-04-23T03:44:53;92535.56;;;5.22;100.00
6204;BME280;3135;42.602;23.468;2023-04-23T03:47:18;92536.88;;;5.30;100.00
6204;BME280;3135;42.602;23.468;2023-04-23T03:49:44;92547.47;;;5.15;100.00
6204;BME280;3135;42.602;23.468;2023-04-23T03:52:09;92554.63;;;5.19;100.00
6204;BME280;3135;42.602;23.468;2023-04-23T03:54:34;92549.84;;;5.16;100.00
6204;BME280;3135;42.602;23.468;2023-04-23T03:57:00;92560.41;;;5.06;100.00
6204;BME280;3135;42.602;23.468;2023-04-23T03:59:26;92551.34;;;4.86;100.00
6204;BME280;3135;42.602;23.468;2023-04-23T04:04:28;92561.22;;;5.17;100.00
6204;BME280;3135;42.602;23.468;2023-04-23T04:06:53;92547.19;;;5.06;100.00
6204;BME280;3135;42.602;23.468;2023-04-23T04:09:19;92577.19;;;5.32;100.00
6204;BME280;3135;42.602;23.468;2023-04-23T04:11:44;92556.78;;;5.27;100.00
6204;BME280;3135;42.602;23.468;2023-04-23T04:14:10;92579.84;;;5.42;100.00
6204;BME280;3135;42.602;23.468;2023-04-23T04:16:35;92567.13;;;5.49;100.00
6204;BME280;3135;42.602;23.468;2023-04-23T04:19:02;92558.09;;;5.45;100.00
6204;BME280;3135;42.602;23.468;2023-04-23T04:21:27;92576.94;;;5.64;100.00
6204;BME280;3135;42.602;23.468;2023-04-23T04:23:54;92570.06;;;5.58;100.00
6204;BME280;3135;42.602;23.468;2023-04-23T04:26:20;92563.16;;;5.52;100.00
6204;BME280;3135;42.602;23.468;2023-04-23T04:28:45;92560.00;;;5.60;100.00
6204;BME280;3135;42.602;23.468;2023-04-23T04:31:12;92561.81;;;5.64;100.00
6204;BME280;3135;42.602;23.468;2023-04-23T04:33:38;92574.56;;;5.83;100.00
6204;BME280;3135;42.602;23.468;2023-04-23T04:36:04;92571.13;;;5.82;100.00
6204;BME280;3135;42.602;23.468;2023-04-23T04:38:29;92583.09;;;6.00;100.00
6204;BME280;3135;42.602;23.468;2023-04-23T04:40:55;92575.66;;;5.97;100.00
6204;BME280;3135;42.602;23.468;2023-04-23T04:43:24;92569.28;;;6.13;100.00
6204;BME280;3135;42.602;23.468;2023-04-23T04:45:50;92574.81;;;6.37;100.00
6204;BME280;3135;42.602;23.468;2023-04-23T04:48:16;92571.88;;;6.49;100.00
6204;BME280;3135;42.602;23.468;2023-04-23T04:50:41;92582.47;;;6.64;100.00
6204;BME280;3135;42.602;23.468;2023-04-23T04:53:07;92575.56;;;6.69;100.00
6204;BME280;3135;42.602;23.468;2023-04-23T04:55:32;92580.59;;;6.70;100.00
6204;BME280;3135;42.602;23.468;2023-04-23T04:57:58;92576.88;;;6.66;100.00
6204;BME280;3135;42.602;23.468;2023-04-23T05:00:27;92587.28;;;6.42;100.00
6204;BME280;3135;42.602;23.468;2023-04-23T05:02:56;92605.88;;;6.42;100.00
6204;BME280;3135;42.602;23.468;2023-04-23T05:05:23;92608.50;;;6.57;100.00
6204;BME280;3135;42.602;23.468;2023-04-23T05:07:49;92602.59;;;6.76;100.00
6204;BME280;3135;42.602;23.468;2023-04-23T05:10:15;92606.34;;;6.75;100.00
6204;BME280;3135;42.602;23.468;2023-04-23T05:12:41;92595.97;;;6.78;100.00
6204;BME280;3135;42.602;23.468;2023-04-23T05:15:09;92597.81;;;6.83;100.00
6204;BME280;3135;42.602;23.468;2023-04-23T05:17:40;92610.28;;;6.87;100.00
6204;BME280;3135;42.602;23.468;2023-04-23T05:20:06;92608.19;;;6.79;100.00
6204;BME280;3135;42.602;23.468;2023-04-23T05:22:39;92602.84;;;6.89;100.00
6204;BME280;3135;42.602;23.468;2023-04-23T05:25:06;92577.97;;;6.60;100.00
6204;BME280;3135;42.602;23.468;2023-04-23T05:27:33;92586.72;;;6.65;100.00
6204;BME280;3135;42.602;23.468;2023-04-23T05:30:00;92600.25;;;6.64;100.00
6204;BME280;3135;42.602;23.468;2023-04-23T05:32:26;92597.03;;;6.82;100.00
6204;BME280;3135;42.602;23.468;2023-04-23T05:34:52;92592.50;;;6.83;100.00
6204;BME280;3135;42.602;23.468;2023-04-23T05:37:17;92606.25;;;7.00;100.00
6204;BME280;3135;42.602;23.468;2023-04-23T05:39:43;92608.06;;;7.10;100.00
6204;BME280;3135;42.602;23.468;2023-04-23T05:42:09;92591.91;;;6.96;100.00
6204;BME280;3135;42.602;23.468;2023-04-23T05:44:34;92595.06;;;7.03;100.00
6204;BME280;3135;42.602;23.468;2023-04-23T05:47:00;92597.97;;;7.12;100.00
6204;BME280;3135;42.602;23.468;2023-04-23T05:49:25;92604.00;;;7.28;100.00
6204;BME280;3135;42.602;23.468;2023-04-23T05:51:51;92595.56;;;7.15;100.00
6204;BME280;3135;42.602;23.468;2023-04-23T05:54:17;92601.59;;;7.31;100.00
6204;BME280;3135;42.602;23.468;2023-04-23T05:56:43;92597.00;;;7.47;100.00
6204;BME280;3135;42.602;23.468;2023-04-23T05:59:09;92600.38;;;7.63;100.00
6204;BME280;3135;42.602;23.468;2023-04-23T06:01:35;92605.81;;;7.87;100.00
6204;BME280;3135;42.602;23.468;2023-04-23T06:04:01;92605.88;;;7.77;100.00
6204;BME280;3135;42.602;23.468;2023-04-23T06:06:26;92596.75;;;7.88;100.00
6204;BME280;3135;42.602;23.468;2023-04-23T06:08:52;92601.97;;;7.98;100.00
6204;BME280;3135;42.602;23.468;2023-04-23T06:11:17;92585.78;;;7.94;100.00
6204;BME280;3135;42.602;23.468;2023-04-23T06:13:43;92586.56;;;8.00;100.00
6204;BME280;3135;42.602;23.468;2023-04-23T06:16:09;92609.69;;;8.34;100.00
6204;BME280;3135;42.602;23.468;2023-04-23T06:18:35;92595.16;;;8.21;100.00
6204;BME280;3135;42.602;23.468;2023-04-23T06:21:02;92601.72;;;8.34;100.00
6204;BME280;3135;42.602;23.468;2023-04-23T06:23:33;92585.13;;;8.47;100.00
6204;BME280;3135;42.602;23.468;2023-04-23T06:25:59;92602.28;;;8.60;100.00
6204;BME280;3135;42.602;23.468;2023-04-23T06:28:25;92606.41;;;8.76;100.00
6204;BME280;3135;42.602;23.468;2023-04-23T06:30:51;92600.59;;;9.17;100.00
6204;BME280;3135;42.602;23.468;2023-04-23T06:33:17;92612.31;;;9.40;100.00
6204;BME280;3135;42.602;23.468;2023-04-23T06:35:42;92617.59;;;9.45;100.00
6204;BME280;3135;42.602;23.468;2023-04-23T06:38:07;92591.13;;;9.30;100.00
6204;BME280;3135;42.602;23.468;2023-04-23T06:40:33;92610.06;;;9.71;100.00
6204;BME280;3135;42.602;23.468;2023-04-23T06:42:58;92594.78;;;9.77;100.00
6204;BME280;3135;42.602;23.468;2023-04-23T06:45:24;92593.97;;;9.95;100.00
6204;BME280;3135;42.602;23.468;2023-04-23T06:47:49;92591.59;;;9.93;100.00
6204;BME280;3135;42.602;23.468;2023-04-23T06:50:15;92609.59;;;10.20;100.00
6204;BME280;3135;42.602;23.468;2023-04-23T06:52:40;92611.06;;;10.32;100.00
6204;BME280;3135;42.602;23.468;2023-04-23T06:55:06;92604.28;;;10.53;100.00
6204;BME280;3135;42.602;23.468;2023-04-23T06:57:32;92605.41;;;10.66;100.00
6204;BME280;3135;42.602;23.468;2023-04-23T06:59:58;92609.31;;;10.87;100.00
6204;BME280;3135;42.602;23.468;2023-04-23T07:02:23;92616.84;;;10.99;100.00
6204;BME280;3135;42.602;23.468;2023-04-23T07:04:49;92589.22;;;11.04;100.00
6204;BME280;3135;42.602;23.468;2023-04-23T07:07:14;92605.59;;;11.30;100.00
6204;BME280;3135;42.602;23.468;2023-04-23T07:09:39;92606.19;;;11.26;100.00
6204;BME280;3135;42.602;23.468;2023-04-23T07:12:05;92613.56;;;11.71;100.00
6204;BME280;3135;42.602;23.468;2023-04-23T07:14:31;92623.38;;;11.75;100.00
6204;BME280;3135;42.602;23.468;2023-04-23T07:16:57;92612.09;;;11.51;100.00
6204;BME280;3135;42.602;23.468;2023-04-23T07:19:23;92627.03;;;11.80;100.00
6204;BME280;3135;42.602;23.468;2023-04-23T07:21:49;92611.06;;;11.74;100.00
6204;BME280;3135;42.602;23.468;2023-04-23T07:24:15;92603.88;;;12.11;100.00
6204;BME280;3135;42.602;23.468;2023-04-23T07:26:41;92602.47;;;12.36;100.00
6204;BME280;3135;42.602;23.468;2023-04-23T07:29:06;92617.41;;;12.73;100.00
6204;BME280;3135;42.602;23.468;2023-04-23T07:31:35;92604.63;;;12.48;100.00
6204;BME280;3135;42.602;23.468;2023-04-23T07:34:01;92611.38;;;12.68;100.00
6204;BME280;3135;42.602;23.468;2023-04-23T07:36:26;92609.03;;;13.28;100.00
6204;BME280;3135;42.602;23.468;2023-04-23T07:38:52;92610.22;;;13.53;100.00
6204;BME280;3135;42.602;23.468;2023-04-23T07:41:17;92626.50;;;13.57;98.82
6204;BME280;3135;42.602;23.468;2023-04-23T07:43:43;92613.38;;;13.55;100.00
6204;BME280;3135;42.602;23.468;2023-04-23T07:46:08;92614.66;;;13.58;100.00
6204;BME280;3135;42.602;23.468;2023-04-23T07:48:34;92621.50;;;13.81;98.60
6204;BME280;3135;42.602;23.468;2023-04-23T07:51:00;92609.78;;;13.77;97.69
6204;BME280;3135;42.602;23.468;2023-04-23T07:53:26;92623.56;;;14.02;95.17
6204;BME280;3135;42.602;23.468;2023-04-23T07:55:56;92626.41;;;13.79;90.43
6204;BME280;3135;42.602;23.468;2023-04-23T08:00:17;92622.50;;;14.38;90.01
6204;BME280;3135;42.602;23.468;2023-04-23T08:02:43;92612.69;;;14.42;89.85
6204;BME280;3135;42.602;23.468;2023-04-23T08:05:08;92625.34;;;14.67;86.93
6204;BME280;3135;42.602;23.468;2023-04-23T08:07:34;92632.59;;;14.93;85.31
6204;BME280;3135;42.602;23.468;2023-04-23T08:09:59;92630.72;;;14.93;84.73
6204;BME280;3135;42.602;23.468;2023-04-23T08:12:28;92620.31;;;14.66;87.15
6204;BME280;3135;42.602;23.468;2023-04-23T08:14:55;92622.66;;;14.85;88.62
6204;BME280;3135;42.602;23.468;2023-04-23T08:17:20;92616.63;;;14.96;90.90
6204;BME280;3135;42.602;23.468;2023-04-23T08:19:45;92598.16;;;14.08;92.41
6204;BME280;3135;42.602;23.468;2023-04-23T08:22:11;92601.28;;;13.75;97.46
6204;BME280;3135;42.602;23.468;2023-04-23T08:24:37;92590.22;;;13.86;100.00
6204;BME280;3135;42.602;23.468;2023-04-23T08:27:03;92598.38;;;13.63;99.98
6204;BME280;3135;42.602;23.468;2023-04-23T08:29:28;92605.41;;;13.99;95.80
6204;BME280;3135;42.602;23.468;2023-04-23T08:31:54;92603.69;;;14.03;97.84
6204;BME280;3135;42.602;23.468;2023-04-23T08:34:20;92616.19;;;13.42;98.99
6204;BME280;3135;42.602;23.468;2023-04-23T08:36:45;92608.66;;;13.61;100.00
6204;BME280;3135;42.602;23.468;2023-04-23T08:39:12;92582.97;;;13.95;96.63
6204;BME280;3135;42.602;23.468;2023-04-23T08:41:39;92594.34;;;14.09;94.23
6204;BME280;3135;42.602;23.468;2023-04-23T08:44:17;92588.81;;;14.05;96.45
6204;BME280;3135;42.602;23.468;2023-04-23T08:46:44;92604.28;;;13.82;94.13
6204;BME280;3135;42.602;23.468;2023-04-23T08:49:14;92595.56;;;13.68;94.93
6204;BME280;3135;42.602;23.468;2023-04-23T08:51:51;92598.31;;;14.20;93.92
6204;BME280;3135;42.602;23.468;2023-04-23T08:54:21;92596.03;;;13.70;95.84
6204;BME280;3135;42.602;23.468;2023-04-23T08:56:50;92593.00;;;13.63;97.44
6204;BME280;3135;42.602;23.468;2023-04-23T08:59:17;92593.25;;;13.36;97.00
6204;BME280;3135;42.602;23.468;2023-04-23T09:01:42;92573.69;;;13.35;97.71
6204;BME280;3135;42.602;23.468;2023-04-23T09:04:08;92583.84;;;13.47;95.51
6204;BME280;3135;42.602;23.468;2023-04-23T09:06:35;92593.41;;;14.05;93.55
6204;BME280;3135;42.602;23.468;2023-04-23T09:09:00;92597.69;;;14.41;92.63
6204;BME280;3135;42.602;23.468;2023-04-23T09:11:27;92584.88;;;14.64;93.05
6204;BME280;3135;42.602;23.468;2023-04-23T09:13:55;92593.41;;;14.40;88.72
6204;BME280;3135;42.602;23.468;2023-04-23T09:16:21;92587.38;;;13.91;91.45
6204;BME280;3135;42.602;23.468;2023-04-23T09:18:46;92580.91;;;14.00;94.19
6204;BME280;3135;42.602;23.468;2023-04-23T09:21:12;92588.66;;;14.28;92.85
6204;BME280;3135;42.602;23.468;2023-04-23T09:23:38;92578.88;;;14.32;92.04
6204;BME280;3135;42.602;23.468;2023-04-23T09:26:05;92569.66;;;14.76;90.80
6204;BME280;3135;42.602;23.468;2023-04-23T09:28:35;92587.63;;;15.11;88.49
6204;BME280;3135;42.602;23.468;2023-04-23T09:31:03;92584.31;;;15.43;86.17
6204;BME280;3135;42.602;23.468;2023-04-23T09:33:29;92575.09;;;15.53;84.02
6204;BME280;3135;42.602;23.468;2023-04-23T09:35:57;92581.19;;;15.32;84.52
6204;BME280;3135;42.602;23.468;2023-04-23T09:38:22;92585.09;;;15.44;82.88
6204;BME280;3135;42.602;23.468;2023-04-23T09:40:49;92599.56;;;15.30;81.44
6204;BME280;3135;42.602;23.468;2023-04-23T09:43:14;92589.41;;;15.36;81.71
6204;BME280;3135;42.602;23.468;2023-04-23T09:45:47;92574.06;;;15.66;81.03
6204;BME280;3135;42.602;23.468;2023-04-23T09:48:13;92583.91;;;16.13;79.25
6204;BME280;3135;42.602;23.468;2023-04-23T09:50:39;92559.38;;;15.64;80.88
6204;BME280;3135;42.602;23.468;2023-04-23T09:53:06;92575.34;;;15.30;78.90
6204;BME280;3135;42.602;23.468;2023-04-23T09:55:37;92566.06;;;15.49;79.83
6204;BME280;3135;42.602;23.468;2023-04-23T09:58:04;92585.66;;;15.58;77.66
6204;BME280;3135;42.602;23.468;2023-04-23T10:00:35;92578.66;;;15.66;78.46
6204;BME280;3135;42.602;23.468;2023-04-23T10:03:01;92571.94;;;15.42;77.91
6204;BME280;3135;42.602;23.468;2023-04-23T10:05:27;92568.31;;;15.76;78.10
6204;BME280;3135;42.602;23.468;2023-04-23T10:07:54;92555.50;;;15.94;78.67
6204;BME280;3135;42.602;23.468;2023-04-23T10:10:20;92560.50;;;15.83;77.05
6204;BME280;3135;42.602;23.468;2023-04-23T10:12:46;92567.28;;;15.90;77.22
6204;BME280;3135;42.602;23.468;2023-04-23T10:15:12;92552.97;;;16.19;75.78
6204;BME280;3135;42.602;23.468;2023-04-23T10:17:39;92560.91;;;16.69;72.59
6204;BME280;3135;42.602;23.468;2023-04-23T10:20:08;92552.13;;;16.93;72.80
6204;BME280;3135;42.602;23.468;2023-04-23T10:22:35;92551.81;;;16.95;72.15
6204;BME280;3135;42.602;23.468;2023-04-23T10:25:08;92545.19;;;17.04;70.39
6204;BME280;3135;42.602;23.468;2023-04-23T10:27:40;92551.75;;;17.28;69.34
6204;BME280;3135;42.602;23.468;2023-04-23T10:30:06;92540.75;;;16.88;69.47
6204;BME280;3135;42.602;23.468;2023-04-23T10:32:33;92524.97;;;17.23;70.30
6204;BME280;3135;42.602;23.468;2023-04-23T10:34:58;92523.38;;;17.22;69.38
6204;BME280;3135;42.602;23.468;2023-04-23T10:37:24;92522.16;;;17.44;68.46
6204;BME280;3135;42.602;23.468;2023-04-23T10:39:54;92518.53;;;17.40;66.35
6204;BME280;3135;42.602;23.468;2023-04-23T10:42:21;92528.69;;;17.79;66.08
6204;BME280;3135;42.602;23.468;2023-04-23T10:44:47;92522.09;;;18.05;65.34
6204;BME280;3135;42.602;23.468;2023-04-23T10:47:14;92531.59;;;17.13;67.28
6204;BME280;3135;42.602;23.468;2023-04-23T10:49:40;92517.75;;;17.39;67.56
6204;BME280;3135;42.602;23.468;2023-04-23T10:54:39;92524.38;;;17.66;67.20
6204;BME280;3135;42.602;23.468;2023-04-23T10:57:06;92518.59;;;18.17;63.34
6204;BME280;3135;42.602;23.468;2023-04-23T10:59:34;92519.91;;;18.23;61.12
6204;BME280;3135;42.602;23.468;2023-04-23T11:02:10;92518.09;;;18.55;61.91
6204;BME280;3135;42.602;23.468;2023-04-23T11:04:43;92496.31;;;18.63;60.52
6204;BME280;3135;42.602;23.468;2023-04-23T11:07:10;92509.50;;;17.72;60.18
6204;BME280;3135;42.602;23.468;2023-04-23T11:09:45;92517.44;;;18.18;59.12
6204;BME280;3135;42.602;23.468;2023-04-23T11:17:03;92525.97;;;18.60;55.24
6204;BME280;3135;42.602;23.468;2023-04-23T11:19:34;92516.69;;;18.05;54.76
6204;BME280;3135;42.602;23.468;2023-04-23T11:22:00;92506.78;;;18.09;57.00
6204;BME280;3135;42.602;23.468;2023-04-23T11:24:45;92501.13;;;17.74;55.95
6204;BME280;3135;42.602;23.468;2023-04-23T11:27:15;92509.06;;;17.95;55.90
6204;BME280;3135;42.602;23.468;2023-04-23T11:29:44;92508.06;;;18.55;53.44
6204;BME280;3135;42.602;23.468;2023-04-23T11:32:11;92473.16;;;18.66;51.04
6204;BME280;3135;42.602;23.468;2023-04-23T11:34:42;92494.97;;;18.85;50.79
6204;BME280;3135;42.602;23.468;2023-04-23T11:37:15;92499.16;;;18.27;51.56
6204;BME280;3135;42.602;23.468;2023-04-23T11:39:41;92485.09;;;18.21;52.77
6204;BME280;3135;42.602;23.468;2023-04-23T11:42:15;92482.69;;;18.04;50.89
6204;BME280;3135;42.602;23.468;2023-04-23T11:44:43;92472.59;;;17.76;51.05
6204;BME280;3135;42.602;23.468;2023-04-23T11:47:12;92471.44;;;17.90;52.38
6204;BME280;3135;42.602;23.468;2023-04-23T11:49:39;92465.38;;;17.80;54.80
6204;BME280;3135;42.602;23.468;2023-04-23T11:52:05;92470.97;;;18.28;55.61
6204;BME280;3135;42.602;23.468;2023-04-23T11:54:31;92462.38;;;18.82;52.63
6204;BME280;3135;42.602;23.468;2023-04-23T11:56:57;92460.13;;;19.15;53.19
6204;BME280;3135;42.602;23.468;2023-04-23T11:59:24;92467.16;;;19.68;51.78
6204;BME280;3135;42.602;23.468;2023-04-23T12:01:53;92460.72;;;19.40;49.79
6204;BME280;3135;42.602;23.468;2023-04-23T12:04:27;92462.31;;;19.26;50.53
6204;BME280;3135;42.602;23.468;2023-04-23T12:06:55;92454.69;;;18.84;48.40
6204;BME280;3135;42.602;23.468;2023-04-23T12:09:23;92474.97;;;18.62;47.20
6204;BME280;3135;42.602;23.468;2023-04-23T12:11:48;92462.00;;;18.39;46.04
6204;BME280;3135;42.602;23.468;2023-04-23T12:14:20;92462.13;;;18.15;45.29
6204;BME280;3135;42.602;23.468;2023-04-23T12:16:51;92447.28;;;18.53;43.55
6204;BME280;3135;42.602;23.468;2023-04-23T12:19:34;92447.41;;;17.35;41.93
6204;BME280;3135;42.602;23.468;2023-04-23T12:22:02;92459.13;;;16.91;41.47
6204;BME280;3135;42.602;23.468;2023-04-23T12:24:29;92458.00;;;17.28;41.53
6204;BME280;3135;42.602;23.468;2023-04-23T12:26:57;92437.63;;;17.31;41.85
6204;BME280;3135;42.602;23.468;2023-04-23T12:29:25;92432.69;;;17.21;41.00
6204;BME280;3135;42.602;23.468;2023-04-23T12:31:52;92451.47;;;17.17;41.64
6204;BME280;3135;42.602;23.468;2023-04-23T12:34:19;92440.91;;;17.36;40.25
6204;BME280;3135;42.602;23.468;2023-04-23T12:36:50;92448.56;;;17.87;39.18
6204;BME280;3135;42.602;23.468;2023-04-23T12:39:29;92441.75;;;17.77;40.62
6204;BME280;3135;42.602;23.468;2023-04-23T12:42:06;92438.53;;;18.00;39.69
6204;BME280;3135;42.602;23.468;2023-04-23T12:44:38;92432.41;;;17.75;41.06
6204;BME280;3135;42.602;23.468;2023-04-23T12:47:05;92442.84;;;17.64;41.04
6204;BME280;3135;42.602;23.468;2023-04-23T12:49:33;92427.22;;;18.10;40.21
6204;BME280;3135;42.602;23.468;2023-04-23T12:52:00;92436.19;;;18.42;39.26
6204;BME280;3135;42.602;23.468;2023-04-23T12:54:27;92435.28;;;18.22;39.62
6204;BME280;3135;42.602;23.468;2023-04-23T12:56:54;92421.25;;;18.32;41.47
6204;BME280;3135;42.602;23.468;2023-04-23T13:07:40;92418.84;;;18.15;39.97
6204;BME280;3135;42.602;23.468;2023-04-23T13:10:07;92421.63;;;18.03;40.44
6204;BME280;3135;42.602;23.468;2023-04-23T13:12:32;92418.53;;;17.88;38.74
6204;BME280;3135;42.602;23.468;2023-04-23T13:14:58;92418.75;;;17.71;39.56
6204;BME280;3135;42.602;23.468;2023-04-23T13:17:24;92407.78;;;17.52;40.42
6204;BME280;3135;42.602;23.468;2023-04-23T13:19:53;92425.19;;;17.67;39.46
6204;BME280;3135;42.602;23.468;2023-04-23T13:22:20;92414.28;;;17.75;39.32
6204;BME280;3135;42.602;23.468;2023-04-23T13:24:46;92422.69;;;18.14;38.92
6204;BME280;3135;42.602;23.468;2023-04-23T13:27:12;92412.13;;;17.69;38.47